createdAt,value
2022-09-16T00:01:13.319Z,63.50
2022-09-16T00:03:42.606Z,63.80
2022-09-16T00:06:21.320Z,63.60
2022-09-16T00:08:55.733Z,64.10
2022-09-16T00:11:26.982Z,64.10
2022-09-16T00:14:03.313Z,64.00
2022-09-16T00:16:30.349Z,64.20
2022-09-16T00:19:02.768Z,64.30
2022-09-16T00:21:30.287Z,64.60
2022-09-16T00:23:59.475Z,64.70
2022-09-16T00:26:26.111Z,64.80
2022-09-16T00:28:52.929Z,65.00
2022-09-16T00:31:24.268Z,65.00
2022-09-16T00:33:53.195Z,65.10
2022-09-16T00:36:25.209Z,65.10
2022-09-16T00:38:59.183Z,65.20
2022-09-16T00:41:36.449Z,65.00
2022-09-16T00:44:05.878Z,65.30
2022-09-16T00:46:39.263Z,65.20
2022-09-16T00:49:21.918Z,65.10
2022-09-16T00:51:49.774Z,65.30
2022-09-16T00:54:19.451Z,65.10
2022-09-16T00:56:51.892Z,64.70
2022-09-16T00:59:25.433Z,64.80
2022-09-16T01:01:56.047Z,64.90
2022-09-16T01:04:29.783Z,64.30
2022-09-16T01:06:57.472Z,64.70
2022-09-16T01:09:35.438Z,64.60
2022-09-16T01:12:04.327Z,64.80
2022-09-16T01:14:50.186Z,65.00
2022-09-16T01:17:40.702Z,65.20
2022-09-16T01:20:28.752Z,65.50
2022-09-16T01:23:40.915Z,65.70
2022-09-16T01:26:34.616Z,66.00
2022-09-16T01:29:23.129Z,65.80
2022-09-16T01:32:12.563Z,66.10
2022-09-16T01:34:57.588Z,66.30
2022-09-16T01:37:30.951Z,66.60
2022-09-16T01:40:10.668Z,65.90
2022-09-16T01:43:01.255Z,66.30
2022-09-16T01:45:38.528Z,66.40
2022-09-16T01:48:23.373Z,66.10
2022-09-16T01:51:09.788Z,65.80
2022-09-16T01:53:45.176Z,66.20
2022-09-16T01:56:23.486Z,65.90
2022-09-16T01:59:16.287Z,66.30
2022-09-16T02:01:52.010Z,66.40
2022-09-16T02:04:45.182Z,66.10
2022-09-16T02:07:14.354Z,66.30
2022-09-16T02:09:51.446Z,66.10
2022-09-16T02:12:25.202Z,66.50
2022-09-16T02:15:02.221Z,66.50
2022-09-16T02:17:35.797Z,66.60
2022-09-16T02:20:11.112Z,66.60
2022-09-16T02:22:44.262Z,66.90
2022-09-16T02:25:18.276Z,66.80
2022-09-16T02:27:56.221Z,66.50
2022-09-16T02:30:23.913Z,66.40
2022-09-16T02:32:57.977Z,66.30
2022-09-16T02:35:27.096Z,66.40
2022-09-16T02:37:59.447Z,66.40
2022-09-16T02:40:41.972Z,66.70
2022-09-16T02:43:09.208Z,66.60
2022-09-16T02:46:13.183Z,66.80
2022-09-16T02:49:03.449Z,66.80
2022-09-16T02:51:34.434Z,66.50
2022-09-16T02:54:22.806Z,66.30
2022-09-16T02:56:59.062Z,66.90
2022-09-16T02:59:25.952Z,66.90
2022-09-16T03:01:58.459Z,66.60
2022-09-16T03:04:29.136Z,66.90
2022-09-16T03:06:57.022Z,66.80
2022-09-16T03:09:29.787Z,66.90
2022-09-16T03:12:09.292Z,67.00
2022-09-16T03:15:04.234Z,67.40
2022-09-16T03:18:00.948Z,67.50
2022-09-16T03:21:03.031Z,67.70
2022-09-16T03:23:44.853Z,67.70
2022-09-16T03:26:30.126Z,67.60
2022-09-16T03:29:18.939Z,67.30
2022-09-16T03:32:06.588Z,67.90
2022-09-16T03:34:39.777Z,67.90
2022-09-16T03:37:10.535Z,67.50
2022-09-16T03:39:41.299Z,67.40
2022-09-16T03:42:13.049Z,67.20
2022-09-16T03:44:43.043Z,67.10
2022-09-16T03:47:14.692Z,67.00
2022-09-16T03:49:41.529Z,67.00
2022-09-16T03:52:17.262Z,66.80
2022-09-16T03:54:43.970Z,66.80
2022-09-16T03:57:10.669Z,66.80
2022-09-16T03:59:41.498Z,67.40
2022-09-16T04:02:09.345Z,66.80
2022-09-16T04:04:41.348Z,66.90
2022-09-16T04:07:07.944Z,67.00
2022-09-16T04:09:38.513Z,67.00
2022-09-16T04:12:07.538Z,67.00
2022-09-16T04:14:37.053Z,67.00
2022-09-16T04:17:06.312Z,67.10
2022-09-16T04:19:33.107Z,67.00
2022-09-16T04:22:02.574Z,67.00
2022-09-16T04:24:29.530Z,66.90
2022-09-16T04:26:56.157Z,66.80
2022-09-16T04:29:22.780Z,66.80
2022-09-16T04:31:49.373Z,66.80
2022-09-16T04:34:16.102Z,66.80
2022-09-16T04:36:42.730Z,66.80
2022-09-16T04:39:09.381Z,66.90
2022-09-16T04:41:35.994Z,67.00
2022-09-16T04:44:02.949Z,67.10
2022-09-16T04:46:31.070Z,66.90
2022-09-16T04:48:59.727Z,66.90
2022-09-16T04:51:28.370Z,67.50
2022-09-16T04:53:56.780Z,66.80
2022-09-16T04:56:28.950Z,66.70
2022-09-16T04:58:58.886Z,66.80
2022-09-16T05:01:27.949Z,66.60
2022-09-16T05:03:58.573Z,66.80
2022-09-16T05:06:28.045Z,66.80
2022-09-16T05:08:55.635Z,66.70
2022-09-16T05:11:24.849Z,66.60
2022-09-16T05:13:52.213Z,66.60
2022-09-16T05:16:21.284Z,66.60
2022-09-16T05:18:50.110Z,66.60
2022-09-16T05:21:19.304Z,66.60
2022-09-16T05:23:48.190Z,66.50
2022-09-16T05:26:24.004Z,66.40
2022-09-16T05:28:51.018Z,66.40
2022-09-16T05:31:23.066Z,66.40
2022-09-16T05:34:01.980Z,66.50
2022-09-16T05:36:31.017Z,66.40
2022-09-16T05:39:21.583Z,66.20
2022-09-16T05:41:47.580Z,66.20
2022-09-16T05:44:14.656Z,66.00
2022-09-16T05:46:42.201Z,66.10
2022-09-16T05:49:09.840Z,66.10
2022-09-16T05:51:38.644Z,66.20
2022-09-16T05:54:05.430Z,66.10
2022-09-16T05:56:32.417Z,66.10
2022-09-16T05:59:00.391Z,66.10
2022-09-16T06:01:30.942Z,66.20
2022-09-16T06:04:00.412Z,66.10
2022-09-16T06:06:32.265Z,66.10
2022-09-16T06:09:03.524Z,66.10
2022-09-16T06:11:30.395Z,66.10
2022-09-16T06:13:59.963Z,66.10
2022-09-16T06:16:27.945Z,66.20
2022-09-16T06:18:55.664Z,66.20
2022-09-16T06:21:22.993Z,66.30
2022-09-16T06:23:49.734Z,66.30
2022-09-16T06:26:21.572Z,66.50
2022-09-16T06:28:49.333Z,66.50
2022-09-16T06:31:18.691Z,66.40
2022-09-16T06:33:45.839Z,66.30
2022-09-16T06:36:18.289Z,66.30
2022-09-16T06:38:45.616Z,66.10
2022-09-16T06:41:13.689Z,66.20
2022-09-16T06:43:41.796Z,65.70
2022-09-16T06:46:13.531Z,65.70
2022-09-16T06:48:41.514Z,65.60
2022-09-16T06:51:11.589Z,65.50
2022-09-16T06:53:38.711Z,65.50
2022-09-16T06:56:08.378Z,65.40
2022-09-16T06:58:36.785Z,65.60
2022-09-16T07:01:08.095Z,65.50
2022-09-16T07:03:38.186Z,65.50
2022-09-16T07:06:05.085Z,65.30
2022-09-16T07:08:33.133Z,65.10
2022-09-16T07:11:04.865Z,65.00
2022-09-16T07:13:32.091Z,64.90
2022-09-16T07:16:13.372Z,65.00
2022-09-16T07:18:40.590Z,64.90
2022-09-16T07:21:12.927Z,64.90
2022-09-16T07:23:41.548Z,64.40
2022-09-16T07:26:13.519Z,64.50
2022-09-16T07:28:41.925Z,65.00
2022-09-16T07:31:12.260Z,65.20
2022-09-16T07:33:44.214Z,65.00
2022-09-16T07:36:13.125Z,64.90
2022-09-16T07:38:39.739Z,64.50
2022-09-16T07:41:08.545Z,64.50
2022-09-16T07:43:35.217Z,64.30
2022-09-16T07:46:02.167Z,64.10
2022-09-16T07:48:34.534Z,64.00
2022-09-16T07:51:08.976Z,63.50
2022-09-16T07:53:36.582Z,63.20
2022-09-16T07:56:12.960Z,63.30
2022-09-16T07:58:40.566Z,63.30
2022-09-16T08:01:07.949Z,63.50
2022-09-16T08:03:37.665Z,63.40
2022-09-16T08:06:16.880Z,63.40
2022-09-16T08:08:45.329Z,63.80
2022-09-16T08:11:14.277Z,63.50
2022-09-16T08:13:42.658Z,63.40
2022-09-16T08:16:12.503Z,63.60
2022-09-16T08:18:39.447Z,63.40
2022-09-16T08:21:08.032Z,63.20
2022-09-16T08:23:35.784Z,62.90
2022-09-16T08:26:05.001Z,62.30
2022-09-16T08:28:40.103Z,62.50
2022-09-16T08:31:19.292Z,62.10
2022-09-16T08:33:46.684Z,62.00
2022-09-16T08:36:20.130Z,61.80
2022-09-16T08:38:51.864Z,61.80
2022-09-16T08:41:46.220Z,61.60
2022-09-16T08:44:50.488Z,61.80
2022-09-16T08:47:35.007Z,61.90
2022-09-16T08:50:05.926Z,61.70
2022-09-16T08:52:35.749Z,61.90
2022-09-16T08:55:20.484Z,62.00
2022-09-16T08:58:22.756Z,62.40
2022-09-16T09:00:55.038Z,63.00
2022-09-16T09:03:34.898Z,62.70
2022-09-16T09:06:22.553Z,62.90
2022-09-16T09:09:11.480Z,62.40
2022-09-16T09:11:59.511Z,61.90
2022-09-16T09:14:58.453Z,61.20
2022-09-16T09:17:37.173Z,60.50
2022-09-16T09:20:41.773Z,60.40
2022-09-16T09:23:38.191Z,59.80
2022-09-16T09:26:09.797Z,59.60
2022-09-16T09:29:13.247Z,59.20
2022-09-16T09:32:04.162Z,59.80
2022-09-16T09:34:50.135Z,59.60
2022-09-16T09:37:20.022Z,59.90
2022-09-16T09:39:56.045Z,59.60
2022-09-16T09:42:29.169Z,59.50
2022-09-16T09:45:24.865Z,59.40
2022-09-16T09:47:57.595Z,58.40
2022-09-16T09:50:30.155Z,58.90
2022-09-16T09:53:12.153Z,58.90
2022-09-16T09:55:40.967Z,58.70
2022-09-16T09:58:13.725Z,58.40
2022-09-16T10:00:40.434Z,58.50
2022-09-16T10:03:18.392Z,59.30
2022-09-16T10:05:47.349Z,58.80
2022-09-16T10:08:16.952Z,58.20
2022-09-16T10:10:59.528Z,57.50
2022-09-16T10:13:30.191Z,56.90
2022-09-16T10:16:11.871Z,57.60
2022-09-16T10:18:39.557Z,56.20
2022-09-16T10:21:13.746Z,56.90
2022-09-16T10:23:52.682Z,56.90
2022-09-16T10:26:28.045Z,56.80
2022-09-16T10:29:04.350Z,56.60
2022-09-16T10:31:42.634Z,56.40
2022-09-16T10:34:32.949Z,56.20
2022-09-16T10:37:27.705Z,55.60
2022-09-16T10:39:56.665Z,55.00
2022-09-16T10:42:28.382Z,55.40
2022-09-16T10:45:26.752Z,54.80
2022-09-16T10:48:07.884Z,54.60
2022-09-16T10:50:34.510Z,53.70
2022-09-16T10:53:01.222Z,53.90
2022-09-16T10:55:38.514Z,53.70
2022-09-16T10:58:18.565Z,53.40
2022-09-16T11:01:11.765Z,52.90
2022-09-16T11:03:57.413Z,52.80
2022-09-16T11:06:42.809Z,54.20
2022-09-16T11:09:15.390Z,53.50
2022-09-16T11:12:24.065Z,53.90
2022-09-16T11:15:05.686Z,54.70
2022-09-16T11:17:57.565Z,55.20
2022-09-16T11:20:39.205Z,56.00
2022-09-16T11:23:29.700Z,57.00
2022-09-16T11:26:14.761Z,58.30
2022-09-16T11:28:50.276Z,57.90
2022-09-16T11:31:16.908Z,58.80
2022-09-16T11:33:49.122Z,59.20
2022-09-16T11:36:18.545Z,60.10
2022-09-16T11:39:11.070Z,60.70
2022-09-16T11:42:04.621Z,62.50
2022-09-16T11:44:51.254Z,62.40
2022-09-16T11:47:38.450Z,62.40
2022-09-16T11:50:30.268Z,61.60
2022-09-16T11:53:05.177Z,62.50
2022-09-16T11:55:45.525Z,62.90
2022-09-16T11:58:45.268Z,64.30
2022-09-16T12:01:41.801Z,66.00
2022-09-16T12:04:31.808Z,66.30
2022-09-16T12:07:09.611Z,65.90
2022-09-16T12:09:52.017Z,65.80
2022-09-16T12:12:28.920Z,68.00
2022-09-16T12:15:22.639Z,68.10
2022-09-16T12:17:55.885Z,69.50
2022-09-16T12:20:29.446Z,69.20
2022-09-16T12:23:06.021Z,69.80
2022-09-16T12:25:42.098Z,70.40
2022-09-16T12:28:50.142Z,70.50
2022-09-16T12:31:37.774Z,72.10
2022-09-16T12:34:14.641Z,72.30
2022-09-16T12:36:45.840Z,72.20
2022-09-16T12:39:12.606Z,72.40
2022-09-16T12:41:39.285Z,72.80
2022-09-16T12:44:37.777Z,73.50
2022-09-16T12:47:16.946Z,74.10
2022-09-16T12:50:03.813Z,74.30
2022-09-16T12:53:09.184Z,75.50
2022-09-16T12:55:54.771Z,75.30
2022-09-16T12:58:45.736Z,73.00
2022-09-16T13:01:37.264Z,74.00
2022-09-16T13:04:14.110Z,73.80
2022-09-16T13:06:59.887Z,73.10
2022-09-16T13:09:33.291Z,72.80
2022-09-16T13:12:36.781Z,72.50
2022-09-16T13:15:06.013Z,72.90
2022-09-16T13:17:40.997Z,73.50
2022-09-16T13:20:18.571Z,73.80
2022-09-16T13:23:04.526Z,72.60
2022-09-16T13:25:48.123Z,71.20
2022-09-16T13:28:39.364Z,70.20
2022-09-16T13:31:12.456Z,72.00
2022-09-16T13:33:40.976Z,70.60
2022-09-16T13:36:19.806Z,69.90
2022-09-16T13:38:55.292Z,70.70
2022-09-16T13:41:37.030Z,70.80
2022-09-16T13:44:30.502Z,72.30
2022-09-16T13:47:09.324Z,72.70
2022-09-16T13:49:50.813Z,73.00
2022-09-16T13:52:24.306Z,72.90
2022-09-16T13:55:10.066Z,72.80
2022-09-16T13:57:58.973Z,72.80
2022-09-16T14:01:03.619Z,73.90
2022-09-16T14:03:47.266Z,73.60
2022-09-16T14:06:55.832Z,73.20
2022-09-16T14:09:26.121Z,73.50
2022-09-16T14:12:20.781Z,73.60
2022-09-16T14:17:47.710Z,84.10
2022-09-16T14:20:21.081Z,79.90
2022-09-16T14:22:47.708Z,77.70
2022-09-16T14:25:36.040Z,71.90
2022-09-16T14:28:08.687Z,67.80
2022-09-16T14:30:35.585Z,65.80
2022-09-16T14:33:03.048Z,64.80
2022-09-16T14:35:30.248Z,64.70
2022-09-16T14:38:00.467Z,64.00
2022-09-16T14:40:28.274Z,64.00
2022-09-16T14:43:04.828Z,64.60
2022-09-16T14:45:32.758Z,64.80
2022-09-16T14:48:02.311Z,65.70
2022-09-16T14:50:37.597Z,65.80
2022-09-16T14:53:09.057Z,67.60
2022-09-16T14:55:39.949Z,67.30
2022-09-16T14:58:10.746Z,66.30
2022-09-16T15:00:44.934Z,64.70
2022-09-16T15:03:17.895Z,64.80
2022-09-16T15:05:46.724Z,64.60
2022-09-16T15:08:28.995Z,63.80
2022-09-16T15:10:59.368Z,64.20
2022-09-16T15:13:38.588Z,64.60
2022-09-16T15:16:14.860Z,65.10
2022-09-16T15:19:03.555Z,65.40
2022-09-16T15:21:32.150Z,66.10
2022-09-16T15:24:01.141Z,67.80
2022-09-16T15:26:43.084Z,66.80
2022-09-16T15:29:18.840Z,64.20
2022-09-16T15:31:46.815Z,62.40
2022-09-16T15:34:22.024Z,60.90
2022-09-16T15:36:53.790Z,58.20
2022-09-16T15:39:25.236Z,57.00
2022-09-16T15:42:23.939Z,53.50
2022-09-16T15:44:56.422Z,53.30
2022-09-16T15:47:32.755Z,51.20
2022-09-16T15:50:21.521Z,49.30
2022-09-16T15:52:48.066Z,49.00
2022-09-16T15:55:35.618Z,47.20
2022-09-16T15:58:17.478Z,45.60
2022-09-16T16:01:02.911Z,43.70
2022-09-16T16:03:51.558Z,43.00
2022-09-16T16:06:18.398Z,42.40
2022-09-16T16:08:51.140Z,43.30
2022-09-16T16:11:20.013Z,41.90
2022-09-16T16:13:49.237Z,43.10
2022-09-16T16:16:17.019Z,43.70
2022-09-16T16:18:45.404Z,44.20
2022-09-16T16:21:14.879Z,45.50
2022-09-16T16:23:44.109Z,46.00
2022-09-16T16:26:11.364Z,47.10
2022-09-16T16:28:38.620Z,47.80
2022-09-16T16:31:16.302Z,48.80
2022-09-16T16:33:47.538Z,49.40
2022-09-16T16:36:16.066Z,50.50
2022-09-16T16:38:43.518Z,51.20
2022-09-16T16:41:12.049Z,51.70
2022-09-16T16:43:39.549Z,51.90
2022-09-16T16:46:06.291Z,52.10
2022-09-16T16:48:33.030Z,52.60
2022-09-16T16:51:03.576Z,53.10
2022-09-16T16:53:31.012Z,52.70
2022-09-16T16:56:05.741Z,52.90
2022-09-16T16:58:35.869Z,52.20
2022-09-16T17:01:17.249Z,52.30
2022-09-16T17:03:46.197Z,52.30
2022-09-16T17:06:13.224Z,52.60
2022-09-16T17:08:40.050Z,52.70
2022-09-16T17:11:10.720Z,53.00
2022-09-16T17:13:43.857Z,53.50
2022-09-16T17:16:12.502Z,54.00
2022-09-16T17:18:40.889Z,54.30
2022-09-16T17:21:16.433Z,54.40
2022-09-16T17:23:43.598Z,54.40
2022-09-16T17:26:11.001Z,54.50
2022-09-16T17:28:39.399Z,54.90
2022-09-16T17:31:10.633Z,54.90
2022-09-16T17:33:37.614Z,55.10
2022-09-16T17:36:07.047Z,55.40
2022-09-16T17:38:36.414Z,56.10
2022-09-16T17:41:06.980Z,55.70
2022-09-16T17:43:34.064Z,56.10
2022-09-16T17:46:01.849Z,56.20
2022-09-16T17:48:29.299Z,56.40
2022-09-16T17:50:56.930Z,56.60
2022-09-16T17:53:24.040Z,56.90
2022-09-16T17:55:51.847Z,57.00
2022-09-16T17:58:18.605Z,57.20
2022-09-16T18:00:45.446Z,57.40
2022-09-16T18:03:12.922Z,57.70
2022-09-16T18:05:40.354Z,58.00
2022-09-16T18:08:06.991Z,58.10
2022-09-16T18:10:33.810Z,58.10
2022-09-16T18:13:00.769Z,58.30
2022-09-16T18:15:27.531Z,58.30
2022-09-16T18:17:54.969Z,58.60
2022-09-16T18:20:22.778Z,58.80
2022-09-16T18:22:49.396Z,58.90
2022-09-16T18:25:16.194Z,58.80
2022-09-16T18:27:44.255Z,59.00
2022-09-16T18:30:11.725Z,58.90
2022-09-16T18:32:38.336Z,58.90
2022-09-16T18:35:05.462Z,58.90
2022-09-16T18:37:32.118Z,58.90
2022-09-16T18:39:58.985Z,58.90
2022-09-16T18:42:25.651Z,58.80
2022-09-16T18:44:52.278Z,58.70
2022-09-16T18:47:23.811Z,58.90
2022-09-16T18:49:50.435Z,59.00
2022-09-16T18:52:17.038Z,59.00
2022-09-16T18:54:46.747Z,59.10
2022-09-16T18:57:14.155Z,59.30
2022-09-16T18:59:40.821Z,59.30
2022-09-16T19:02:13.420Z,59.50
2022-09-16T19:04:42.276Z,59.60
2022-09-16T19:07:13.184Z,60.30
2022-09-16T19:09:40.264Z,59.90
2022-09-16T19:12:10.870Z,60.00
2022-09-16T19:14:37.962Z,60.40
2022-09-16T19:17:05.548Z,60.40
2022-09-16T19:19:32.389Z,60.50
2022-09-16T19:21:59.166Z,60.50
2022-09-16T19:24:26.994Z,60.70
2022-09-16T19:26:57.572Z,60.80
2022-09-16T19:29:24.288Z,60.90
2022-09-16T19:31:52.716Z,61.00
2022-09-16T19:34:19.902Z,61.10
2022-09-16T19:36:46.730Z,61.10
2022-09-16T19:39:13.934Z,61.30
2022-09-16T19:41:43.722Z,61.40
2022-09-16T19:44:13.036Z,61.50
2022-09-16T19:46:42.406Z,61.60
2022-09-16T19:49:14.201Z,61.60
2022-09-16T19:51:43.493Z,61.90
2022-09-16T19:54:10.636Z,61.70
2022-09-16T19:56:37.541Z,61.90
2022-09-16T19:59:04.913Z,62.00
2022-09-16T20:01:33.714Z,62.80
2022-09-16T20:04:02.009Z,62.40
2022-09-16T20:06:32.454Z,62.40
2022-09-16T20:09:00.893Z,62.50
2022-09-16T20:11:31.338Z,62.60
2022-09-16T20:14:00.977Z,62.70
2022-09-16T20:16:39.545Z,62.80
2022-09-16T20:19:09.916Z,63.30
2022-09-16T20:21:37.738Z,63.00
2022-09-16T20:24:07.310Z,63.20
2022-09-16T20:26:35.306Z,63.30
2022-09-16T20:29:03.182Z,63.50
2022-09-16T20:31:32.697Z,63.50
2022-09-16T20:34:02.255Z,63.70
2022-09-16T20:36:30.627Z,63.80
2022-09-16T20:38:59.705Z,63.90
2022-09-16T20:41:28.567Z,64.00
2022-09-16T20:43:55.956Z,64.10
2022-09-16T20:46:25.157Z,64.30
2022-09-16T20:48:54.390Z,64.30
2022-09-16T20:51:23.633Z,64.40
2022-09-16T20:53:55.338Z,64.60
2022-09-16T20:56:22.768Z,64.60
2022-09-16T20:58:49.674Z,64.60
2022-09-16T21:01:24.642Z,64.70
2022-09-16T21:03:53.858Z,64.90
2022-09-16T21:06:21.496Z,64.90
2022-09-16T21:08:48.544Z,64.90
2022-09-16T21:11:19.325Z,65.00
2022-09-16T21:13:52.685Z,65.10
2022-09-16T21:16:22.982Z,65.00
2022-09-16T21:18:54.619Z,65.20
2022-09-16T21:21:24.331Z,65.30
2022-09-16T21:23:52.233Z,65.20
2022-09-16T21:26:21.732Z,65.40
2022-09-16T21:28:55.998Z,65.30
2022-09-16T21:31:23.947Z,65.40
2022-09-16T21:33:51.839Z,65.20
2022-09-16T21:36:19.974Z,65.20
2022-09-16T21:38:49.126Z,65.20
2022-09-16T21:41:18.101Z,65.20
2022-09-16T21:43:51.083Z,65.20
2022-09-16T21:46:29.912Z,65.20
2022-09-16T21:49:01.852Z,65.50
2022-09-16T21:51:35.266Z,65.30
2022-09-16T21:54:05.142Z,65.40
2022-09-16T21:56:32.138Z,65.30
2022-09-16T21:58:59.309Z,65.30
2022-09-16T22:01:31.491Z,65.40
2022-09-16T22:04:00.581Z,65.50
2022-09-16T22:06:29.873Z,65.60
2022-09-16T22:09:01.366Z,65.60
2022-09-16T22:11:31.163Z,65.60
2022-09-16T22:14:00.447Z,65.60
2022-09-16T22:16:29.509Z,65.60
2022-09-16T22:19:02.213Z,65.60
2022-09-16T22:21:31.965Z,65.70
2022-09-16T22:24:00.183Z,65.80
2022-09-16T22:26:28.280Z,65.80
2022-09-16T22:28:57.782Z,65.90
2022-09-16T22:31:28.958Z,66.00
2022-09-16T22:33:57.757Z,66.00
2022-09-16T22:36:27.330Z,66.10
2022-09-16T22:39:01.305Z,66.20
2022-09-16T22:41:29.229Z,66.20
2022-09-16T22:43:56.454Z,66.40
2022-09-16T22:46:29.587Z,66.40
2022-09-16T22:48:57.566Z,66.70
2022-09-16T22:51:26.045Z,66.60
2022-09-16T22:53:53.686Z,66.70
2022-09-16T22:56:28.237Z,66.90
2022-09-16T22:58:59.520Z,67.10
2022-09-16T23:01:32.952Z,67.10
2022-09-16T23:04:01.659Z,67.30
2022-09-16T23:06:30.914Z,67.50
2022-09-16T23:08:57.901Z,67.60
2022-09-16T23:11:28.490Z,67.80
2022-09-16T23:14:00.148Z,68.10
2022-09-16T23:16:32.787Z,68.20
2022-09-16T23:19:02.962Z,68.30
2022-09-16T23:21:30.854Z,68.40
2022-09-16T23:24:00.388Z,68.50
2022-09-16T23:26:32.007Z,68.70
2022-09-16T23:29:00.782Z,68.70
2022-09-16T23:31:29.837Z,68.70
2022-09-16T23:33:59.011Z,68.80
2022-09-16T23:36:29.171Z,68.80
2022-09-16T23:38:58.291Z,68.80
2022-09-16T23:41:29.950Z,68.80
2022-09-16T23:43:57.915Z,68.70
2022-09-16T23:46:32.539Z,68.60
2022-09-16T23:49:00.784Z,68.70
2022-09-16T23:51:31.077Z,68.50
2022-09-16T23:54:00.116Z,68.50
2022-09-16T23:56:30.394Z,68.50
2022-09-16T23:59:00.648Z,68.60
